createdAt,value
2018-06-03T00:01:19.065Z,23.20
2018-06-03T00:03:47.594Z,23.20
2018-06-03T00:06:16.196Z,23.20
2018-06-03T00:08:44.728Z,23.10
2018-06-03T00:11:13.412Z,23.10
2018-06-03T00:16:10.191Z,23.10
2018-06-03T00:21:18.343Z,23.00
2018-06-03T00:23:46.858Z,23.00
2018-06-03T00:26:15.387Z,23.00
2018-06-03T00:28:43.913Z,23.00
2018-06-03T00:31:12.511Z,22.90
2018-06-03T00:33:41.039Z,22.90
2018-06-03T00:36:20.728Z,22.90
2018-06-03T00:38:49.271Z,22.80
2018-06-03T00:41:17.790Z,22.80
2018-06-03T00:43:46.348Z,22.80
2018-06-03T00:46:14.930Z,22.80
2018-06-03T00:48:43.493Z,22.70
2018-06-03T00:51:12.024Z,22.70
2018-06-03T00:53:40.602Z,22.70
2018-06-03T00:56:10.665Z,22.60
2018-06-03T00:58:39.307Z,22.60
2018-06-03T01:01:07.851Z,22.60
2018-06-03T01:03:36.560Z,22.60
2018-06-03T01:06:05.079Z,22.50
2018-06-03T01:08:33.636Z,22.50
2018-06-03T01:11:02.245Z,22.50
2018-06-03T01:13:30.803Z,22.50
2018-06-03T01:15:59.390Z,22.50
2018-06-03T01:18:27.938Z,22.40
2018-06-03T01:20:56.473Z,22.40
2018-06-03T01:23:25.047Z,22.40
2018-06-03T01:25:53.557Z,22.30
2018-06-03T01:28:22.092Z,22.30
2018-06-03T01:30:50.627Z,22.30
2018-06-03T01:33:19.191Z,22.30
2018-06-03T01:35:47.745Z,22.20
2018-06-03T01:38:16.319Z,22.20
2018-06-03T01:40:44.873Z,22.20
2018-06-03T01:43:13.422Z,22.20
2018-06-03T01:45:41.934Z,22.10
2018-06-03T01:48:10.524Z,22.10
2018-06-03T01:50:39.057Z,22.10
2018-06-03T01:53:07.600Z,22.10
2018-06-03T01:55:36.113Z,22.10
2018-06-03T01:58:04.726Z,22.00
2018-06-03T02:00:33.230Z,22.00
2018-06-03T02:03:01.767Z,22.00
2018-06-03T02:05:30.387Z,22.00
2018-06-03T02:07:58.932Z,21.90
2018-06-03T02:10:27.476Z,21.90
2018-06-03T02:12:56.012Z,21.90
2018-06-03T02:15:24.606Z,21.90
2018-06-03T02:17:53.138Z,21.90
2018-06-03T02:22:49.919Z,21.80
2018-06-03T02:25:18.461Z,21.80
2018-06-03T02:27:46.972Z,21.70
2018-06-03T02:30:15.543Z,21.70
2018-06-03T02:32:44.105Z,21.70
2018-06-03T02:35:12.648Z,21.70
2018-06-03T02:37:41.171Z,21.70
2018-06-03T02:40:09.735Z,21.60
2018-06-03T02:42:38.320Z,21.60
2018-06-03T02:45:06.965Z,21.60
2018-06-03T02:47:35.512Z,21.60
2018-06-03T02:50:04.198Z,21.50
2018-06-03T02:52:32.709Z,21.50
2018-06-03T02:55:01.261Z,21.50
2018-06-03T02:57:29.784Z,21.50
2018-06-03T02:59:58.354Z,21.50
2018-06-03T03:02:26.866Z,21.40
2018-06-03T03:04:55.411Z,21.40
2018-06-03T03:07:23.931Z,21.40
2018-06-03T03:09:52.522Z,21.40
2018-06-03T03:12:21.046Z,21.30
2018-06-03T03:14:49.597Z,21.30
2018-06-03T03:17:18.312Z,21.30
2018-06-03T03:19:47.043Z,21.30
2018-06-03T03:22:15.571Z,21.20
2018-06-03T03:24:44.103Z,21.20
2018-06-03T03:27:12.618Z,21.20
2018-06-03T03:29:41.158Z,21.20
2018-06-03T03:32:09.680Z,21.10
2018-06-03T03:34:38.209Z,21.10
2018-06-03T03:37:06.727Z,21.10
2018-06-03T03:39:35.269Z,21.10
2018-06-03T03:42:03.798Z,21.10
2018-06-03T03:44:32.333Z,21.00
2018-06-03T03:47:00.857Z,21.00
2018-06-03T03:49:29.411Z,21.00
2018-06-03T03:51:57.938Z,21.00
2018-06-03T03:54:26.534Z,21.00
2018-06-03T03:56:55.069Z,20.90
2018-06-03T03:59:23.595Z,20.90
2018-06-03T04:01:52.132Z,20.90
2018-06-03T04:06:48.906Z,20.90
2018-06-03T04:09:17.412Z,20.80
2018-06-03T04:11:45.969Z,20.80
2018-06-03T04:14:14.496Z,20.80
2018-06-03T04:16:43.044Z,20.80
2018-06-03T04:21:39.803Z,20.70
2018-06-03T04:24:08.334Z,20.70
2018-06-03T04:26:36.966Z,20.70
2018-06-03T04:29:05.507Z,20.70
2018-06-03T04:31:34.118Z,20.70
2018-06-03T04:34:02.635Z,20.70
2018-06-03T04:36:31.183Z,20.70
2018-06-03T04:38:59.703Z,20.60
2018-06-03T04:41:28.270Z,20.60
2018-06-03T04:43:56.792Z,20.60
2018-06-03T04:46:25.371Z,20.60
2018-06-03T04:48:53.900Z,20.60
2018-06-03T04:53:50.638Z,20.50
2018-06-03T04:56:20.632Z,20.50
2018-06-03T04:58:49.220Z,20.50
2018-06-03T05:01:17.767Z,20.50
2018-06-03T05:03:46.299Z,20.50
2018-06-03T05:06:14.843Z,20.50
2018-06-03T05:08:43.474Z,20.50
2018-06-03T05:11:12.032Z,20.50
2018-06-03T05:13:40.563Z,20.50
2018-06-03T05:16:09.115Z,20.50
2018-06-03T05:18:37.695Z,20.50
2018-06-03T05:21:06.568Z,20.50
2018-06-03T05:23:35.095Z,20.50
2018-06-03T05:26:03.689Z,20.50
2018-06-03T05:28:32.218Z,20.50
2018-06-03T05:31:00.756Z,20.50
2018-06-03T05:33:29.279Z,20.60
2018-06-03T05:35:57.831Z,20.60
2018-06-03T05:38:26.356Z,20.60
2018-06-03T05:40:54.935Z,20.60
2018-06-03T05:43:23.445Z,20.60
2018-06-03T05:45:52.046Z,20.60
2018-06-03T05:48:20.603Z,20.60
2018-06-03T05:50:49.190Z,20.60
2018-06-03T05:53:17.743Z,20.70
2018-06-03T05:55:46.277Z,20.70
2018-06-03T05:58:14.816Z,20.70
2018-06-03T06:00:43.347Z,20.70
2018-06-03T06:03:11.869Z,20.70
2018-06-03T06:05:40.388Z,20.80
2018-06-03T06:08:08.939Z,20.80
2018-06-03T06:10:37.451Z,20.80
2018-06-03T06:13:06.121Z,20.80
2018-06-03T06:15:34.641Z,20.80
2018-06-03T06:18:03.178Z,20.90
2018-06-03T06:20:31.697Z,20.90
2018-06-03T06:23:00.225Z,20.90
2018-06-03T06:25:28.779Z,21.00
2018-06-03T06:27:57.297Z,21.00
2018-06-03T06:30:25.804Z,21.00
2018-06-03T06:32:54.343Z,21.10
2018-06-03T06:35:22.857Z,21.10
2018-06-03T06:37:51.403Z,21.10
2018-06-03T06:40:19.930Z,21.20
2018-06-03T06:42:48.466Z,21.20
2018-06-03T06:45:17.000Z,21.20
2018-06-03T06:47:45.622Z,21.30
2018-06-03T06:50:14.145Z,21.30
2018-06-03T06:52:42.690Z,21.30
2018-06-03T06:55:11.216Z,21.30
2018-06-03T06:57:39.758Z,21.30
2018-06-03T07:00:08.322Z,21.40
2018-06-03T07:02:36.986Z,21.40
2018-06-03T07:05:05.554Z,21.40
2018-06-03T07:07:34.175Z,21.40
2018-06-03T07:10:02.710Z,21.40
2018-06-03T07:12:31.255Z,21.40
2018-06-03T07:14:59.772Z,21.50
2018-06-03T07:19:56.533Z,21.50
2018-06-03T07:24:53.275Z,21.50
2018-06-03T07:27:21.839Z,21.50
2018-06-03T07:29:50.345Z,21.60
2018-06-03T07:32:18.854Z,21.60
2018-06-03T07:34:47.400Z,21.60
2018-06-03T07:37:15.933Z,21.60
2018-06-03T07:39:44.492Z,21.60
2018-06-03T07:42:13.013Z,21.70
2018-06-03T07:44:41.702Z,21.70
2018-06-03T07:47:10.283Z,21.80
2018-06-03T07:49:38.831Z,21.80
2018-06-03T07:52:07.356Z,21.80
2018-06-03T07:54:36.003Z,21.80
2018-06-03T07:57:04.524Z,21.90
2018-06-03T07:59:33.059Z,21.90
2018-06-03T08:02:01.820Z,21.90
2018-06-03T08:04:30.359Z,21.90
2018-06-03T08:06:58.875Z,22.00
2018-06-03T08:09:27.452Z,21.90
2018-06-03T08:11:55.998Z,21.90
2018-06-03T08:14:24.710Z,21.90
2018-06-03T08:16:53.289Z,21.80
2018-06-03T08:19:21.942Z,21.80
2018-06-03T08:21:50.476Z,21.80
2018-06-03T08:24:19.042Z,21.80
2018-06-03T08:26:47.580Z,21.80
2018-06-03T08:29:16.424Z,21.80
2018-06-03T08:31:44.950Z,21.80
2018-06-03T08:34:13.514Z,21.90
2018-06-03T08:36:42.139Z,21.90
2018-06-03T08:39:10.747Z,21.90
2018-06-03T08:41:39.313Z,21.90
2018-06-03T08:44:07.864Z,21.90
2018-06-03T08:46:36.383Z,21.90
2018-06-03T08:49:04.975Z,21.90
2018-06-03T08:51:33.550Z,22.00
2018-06-03T08:54:02.805Z,22.00
2018-06-03T08:56:31.354Z,22.00
2018-06-03T08:58:59.991Z,22.00
2018-06-03T09:01:28.620Z,22.00
2018-06-03T09:03:57.309Z,22.10
2018-06-03T09:06:25.852Z,22.10
2018-06-03T09:11:22.888Z,22.20
2018-06-03T09:13:51.430Z,22.20
2018-06-03T09:16:20.228Z,22.20
2018-06-03T09:18:48.936Z,22.30
2018-06-03T09:21:17.492Z,22.30
2018-06-03T09:23:46.282Z,22.40
2018-06-03T09:26:14.896Z,22.50
2018-06-03T09:28:43.447Z,22.50
2018-06-03T09:31:12.001Z,22.50
2018-06-03T09:33:40.529Z,22.60
2018-06-03T09:36:09.075Z,22.60
2018-06-03T09:38:37.607Z,22.60
2018-06-03T09:41:06.187Z,22.70
2018-06-03T09:43:34.719Z,22.80
2018-06-03T09:48:31.823Z,23.00
2018-06-03T09:51:00.714Z,23.10
2018-06-03T09:53:29.268Z,23.20
2018-06-03T09:58:26.239Z,23.50
2018-06-03T10:00:54.812Z,23.60
2018-06-03T10:03:23.351Z,23.70
2018-06-03T10:05:52.975Z,23.90
2018-06-03T10:08:21.512Z,24.00
2018-06-03T10:10:50.068Z,24.10
2018-06-03T10:13:19.619Z,24.20
2018-06-03T10:15:48.890Z,24.30
2018-06-03T10:18:17.452Z,24.40
2018-06-03T10:20:46.054Z,24.50
2018-06-03T10:23:14.582Z,24.40
2018-06-03T10:25:43.127Z,24.30
2018-06-03T10:28:11.650Z,24.40
2018-06-03T10:30:40.244Z,24.40
2018-06-03T10:33:08.786Z,24.30
2018-06-03T10:35:37.442Z,24.30
2018-06-03T10:38:06.068Z,24.50
2018-06-03T10:40:34.638Z,24.70
2018-06-03T10:43:03.176Z,24.90
2018-06-03T10:45:31.744Z,25.10
2018-06-03T10:48:00.277Z,25.30
2018-06-03T10:50:28.848Z,25.40
2018-06-03T10:52:57.374Z,25.50
2018-06-03T10:55:25.908Z,25.50
2018-06-03T10:57:54.443Z,25.40
2018-06-03T11:00:22.984Z,25.40
2018-06-03T11:02:51.604Z,25.50
2018-06-03T11:05:20.134Z,25.60
2018-06-03T11:07:48.812Z,25.80
2018-06-03T11:10:17.309Z,25.90
2018-06-03T11:12:45.856Z,26.00
2018-06-03T11:15:14.385Z,25.90
2018-06-03T11:17:43.004Z,26.00
2018-06-03T11:20:11.528Z,26.00
2018-06-03T11:22:40.084Z,26.00
2018-06-03T11:25:08.615Z,26.00
2018-06-03T11:27:37.161Z,26.00
2018-06-03T11:30:05.745Z,26.00
2018-06-03T11:32:34.303Z,26.00
2018-06-03T11:35:02.839Z,26.10
2018-06-03T11:37:31.421Z,26.10
2018-06-03T11:40:00.051Z,26.20
2018-06-03T11:42:28.590Z,26.20
2018-06-03T11:44:57.128Z,26.20
2018-06-03T11:47:25.789Z,26.20
2018-06-03T11:49:54.330Z,26.30
2018-06-03T11:52:22.892Z,26.30
2018-06-03T11:54:51.415Z,26.40
2018-06-03T11:57:20.306Z,26.40
2018-06-03T11:59:48.840Z,26.50
2018-06-03T12:02:18.510Z,26.50
2018-06-03T12:04:47.038Z,26.60
2018-06-03T12:07:15.603Z,26.70
2018-06-03T12:09:44.132Z,26.70
2018-06-03T12:12:12.647Z,26.80
2018-06-03T12:14:41.191Z,26.90
2018-06-03T12:17:09.715Z,26.90
2018-06-03T12:22:06.490Z,26.50
2018-06-03T12:24:35.031Z,26.50
2018-06-03T12:27:03.553Z,26.60
2018-06-03T12:29:32.100Z,26.70
2018-06-03T12:32:00.640Z,26.70
2018-06-03T12:34:29.190Z,26.80
2018-06-03T12:36:57.807Z,26.90
2018-06-03T12:39:26.366Z,27.00
2018-06-03T12:41:54.908Z,27.00
2018-06-03T12:44:23.462Z,26.90
2018-06-03T12:46:51.999Z,26.90
2018-06-03T12:49:20.542Z,26.90
2018-06-03T12:51:49.067Z,26.80
2018-06-03T12:54:17.607Z,26.90
2018-06-03T12:56:46.162Z,26.90
2018-06-03T12:59:14.731Z,26.80
2018-06-03T13:01:43.344Z,26.70
2018-06-03T13:04:11.910Z,26.70
2018-06-03T13:06:40.446Z,26.60
2018-06-03T13:09:09.026Z,26.50
2018-06-03T13:11:37.585Z,26.40
2018-06-03T13:14:06.137Z,26.30
2018-06-03T13:16:34.741Z,26.30
2018-06-03T13:19:03.331Z,26.10
2018-06-03T13:21:31.910Z,26.10
2018-06-03T13:24:00.603Z,26.00
2018-06-03T13:26:29.147Z,25.90
2018-06-03T13:28:57.708Z,25.80
2018-06-03T13:31:26.258Z,25.80
2018-06-03T13:33:54.986Z,25.80
2018-06-03T13:36:23.510Z,25.80
2018-06-03T13:38:52.050Z,25.70
2018-06-03T13:41:20.577Z,25.80
2018-06-03T13:43:49.130Z,25.80
2018-06-03T13:46:17.798Z,25.80
2018-06-03T13:48:46.364Z,25.80
2018-06-03T13:51:14.880Z,25.90
2018-06-03T13:53:43.416Z,25.90
2018-06-03T13:56:11.986Z,26.00
2018-06-03T13:58:40.522Z,26.00
2018-06-03T14:01:09.075Z,26.00
2018-06-03T14:03:37.651Z,26.00
2018-06-03T14:06:06.209Z,26.00
2018-06-03T14:08:34.743Z,25.90
2018-06-03T14:11:03.284Z,25.90
2018-06-03T14:13:31.814Z,25.90
2018-06-03T14:16:00.374Z,25.80
2018-06-03T14:18:28.907Z,25.80
2018-06-03T14:20:58.354Z,25.80
2018-06-03T14:23:26.882Z,25.70
2018-06-03T14:25:55.448Z,25.70
2018-06-03T14:28:23.984Z,25.70
2018-06-03T14:30:52.545Z,25.70
2018-06-03T14:35:49.552Z,25.80
2018-06-03T14:38:18.081Z,25.80
2018-06-03T14:40:46.664Z,25.80
2018-06-03T14:43:15.181Z,25.80
2018-06-03T14:45:44.086Z,25.80
2018-06-03T14:48:12.638Z,25.80
2018-06-03T14:50:41.255Z,25.80
2018-06-03T14:53:09.830Z,25.80
2018-06-03T14:55:38.402Z,25.70
2018-06-03T14:58:06.938Z,25.70
2018-06-03T15:00:35.437Z,25.70
2018-06-03T15:03:04.230Z,25.70
2018-06-03T15:05:33.625Z,25.70
2018-06-03T15:08:02.184Z,25.70
2018-06-03T15:10:30.803Z,25.60
2018-06-03T15:12:59.424Z,25.70
2018-06-03T15:15:27.978Z,25.70
2018-06-03T15:17:56.549Z,25.60
2018-06-03T15:20:25.157Z,25.60
2018-06-03T15:22:53.725Z,25.60
2018-06-03T15:25:22.356Z,25.60
2018-06-03T15:27:50.948Z,25.60
2018-06-03T15:30:19.495Z,25.60
2018-06-03T15:32:48.357Z,25.60
2018-06-03T15:35:17.085Z,25.60
2018-06-03T15:37:45.695Z,25.60
2018-06-03T15:40:14.318Z,25.60
2018-06-03T15:42:42.865Z,25.60
2018-06-03T15:45:11.473Z,25.60
2018-06-03T15:47:40.019Z,25.50
2018-06-03T15:50:08.626Z,25.60
2018-06-03T15:52:37.199Z,25.60
2018-06-03T15:55:05.730Z,25.60
2018-06-03T15:57:34.276Z,25.60
2018-06-03T16:00:02.807Z,25.50
2018-06-03T16:02:31.358Z,25.60
2018-06-03T16:05:00.665Z,25.50
2018-06-03T16:07:29.202Z,25.50
2018-06-03T16:09:57.731Z,25.50
2018-06-03T16:12:26.954Z,25.40
2018-06-03T16:14:55.481Z,25.40
2018-06-03T16:17:24.020Z,25.40
2018-06-03T16:19:52.578Z,25.40
2018-06-03T16:22:21.295Z,25.40
2018-06-03T16:24:49.798Z,25.40
2018-06-03T16:27:18.364Z,25.30
2018-06-03T16:29:46.938Z,25.30
2018-06-03T16:32:15.487Z,25.30
2018-06-03T16:34:44.016Z,25.30
2018-06-03T16:37:12.756Z,25.30
2018-06-03T16:39:41.302Z,25.30
2018-06-03T16:42:09.871Z,25.30
2018-06-03T16:44:38.427Z,25.30
2018-06-03T16:47:07.086Z,25.30
2018-06-03T16:49:35.607Z,25.30
2018-06-03T16:52:04.174Z,25.30
2018-06-03T16:54:32.720Z,25.20
2018-06-03T16:57:01.280Z,26.50
2018-06-03T16:59:29.822Z,27.80
2018-06-03T17:01:58.365Z,29.00
2018-06-03T17:04:26.970Z,29.60
2018-06-03T17:06:55.544Z,30.10
2018-06-03T17:09:24.252Z,30.40
2018-06-03T17:11:52.784Z,30.60
2018-06-03T17:14:21.331Z,30.90
2018-06-03T17:16:49.874Z,30.90
2018-06-03T17:19:18.418Z,31.00
2018-06-03T17:21:47.082Z,31.00
2018-06-03T17:24:15.599Z,31.00
2018-06-03T17:26:44.332Z,31.10
2018-06-03T17:29:12.854Z,31.00
2018-06-03T17:31:41.402Z,31.10
2018-06-03T17:34:09.951Z,31.10
2018-06-03T17:36:38.480Z,31.10
2018-06-03T17:39:08.573Z,31.10
2018-06-03T17:41:37.127Z,31.10
2018-06-03T17:44:05.675Z,31.00
2018-06-03T17:46:35.098Z,30.90
2018-06-03T17:49:03.759Z,30.90
2018-06-03T17:51:32.414Z,31.00
2018-06-03T17:54:00.961Z,30.90
2018-06-03T17:56:29.501Z,30.80
2018-06-03T17:58:58.203Z,30.70
2018-06-03T18:01:26.767Z,30.70
2018-06-03T18:03:55.334Z,30.70
2018-06-03T18:06:23.849Z,30.70
2018-06-03T18:08:52.784Z,30.60
2018-06-03T18:13:49.521Z,30.60
2018-06-03T18:16:18.067Z,30.50
2018-06-03T18:18:46.602Z,30.50
2018-06-03T18:23:43.355Z,30.40
2018-06-03T18:28:40.096Z,30.30
2018-06-03T18:31:08.645Z,30.30
2018-06-03T18:33:37.188Z,30.30
2018-06-03T18:36:05.815Z,30.20
2018-06-03T18:38:34.427Z,30.20
2018-06-03T18:41:02.994Z,30.10
2018-06-03T18:43:31.523Z,30.10
2018-06-03T18:46:00.391Z,30.10
2018-06-03T18:48:28.952Z,30.00
2018-06-03T18:50:57.495Z,29.90
2018-06-03T18:53:26.054Z,29.90
2018-06-03T18:55:54.715Z,29.80
2018-06-03T18:58:23.287Z,29.70
2018-06-03T19:00:51.949Z,29.70
2018-06-03T19:03:20.508Z,29.70
2018-06-03T19:05:49.050Z,29.70
2018-06-03T19:08:17.635Z,29.60
2018-06-03T19:10:46.236Z,29.60
2018-06-03T19:13:14.779Z,29.50
2018-06-03T19:15:43.326Z,29.50
2018-06-03T19:18:11.909Z,29.50
2018-06-03T19:20:40.414Z,29.40
2018-06-03T19:23:09.020Z,29.40
2018-06-03T19:25:37.574Z,29.30
2018-06-03T19:28:06.112Z,29.30
2018-06-03T19:30:34.671Z,29.20
2018-06-03T19:33:03.205Z,29.20
2018-06-03T19:38:00.198Z,29.10
2018-06-03T19:40:28.743Z,29.10
2018-06-03T19:42:57.280Z,29.00
2018-06-03T19:45:25.827Z,29.00
2018-06-03T19:47:54.372Z,28.90
2018-06-03T19:50:22.951Z,28.90
2018-06-03T19:52:51.470Z,28.90
2018-06-03T19:55:20.048Z,28.80
2018-06-03T20:00:17.729Z,28.70
2018-06-03T20:02:46.267Z,28.70
2018-06-03T20:05:14.970Z,28.60
2018-06-03T20:07:43.480Z,28.60
2018-06-03T20:10:12.046Z,28.50
2018-06-03T20:12:40.562Z,28.50
2018-06-03T20:15:09.446Z,28.50
2018-06-03T20:20:07.053Z,28.40
2018-06-03T20:22:35.570Z,28.30
2018-06-03T20:25:04.122Z,28.30
2018-06-03T20:27:32.660Z,28.30
2018-06-03T20:30:02.062Z,28.20
2018-06-03T20:32:30.583Z,28.20
2018-06-03T20:34:59.129Z,28.10
2018-06-03T20:37:27.764Z,28.10
2018-06-03T20:39:56.312Z,28.10
2018-06-03T20:42:24.822Z,28.00
2018-06-03T20:44:53.366Z,28.00
2018-06-03T20:47:21.910Z,28.00
2018-06-03T20:49:50.461Z,27.90
2018-06-03T20:52:18.984Z,27.80
2018-06-03T20:54:47.534Z,27.80
2018-06-03T20:57:16.057Z,27.80
2018-06-03T20:59:44.614Z,27.70
2018-06-03T21:02:13.174Z,27.70
2018-06-03T21:04:41.814Z,27.70
2018-06-03T21:07:10.355Z,27.60
2018-06-03T21:09:38.904Z,27.60
2018-06-03T21:12:07.432Z,27.60
2018-06-03T21:14:35.989Z,27.50
2018-06-03T21:17:04.634Z,27.40
2018-06-03T21:19:33.151Z,27.40
2018-06-03T21:22:01.703Z,27.40
2018-06-03T21:24:30.236Z,27.30
2018-06-03T21:26:58.779Z,27.30
2018-06-03T21:29:27.311Z,27.30
2018-06-03T21:31:55.872Z,27.20
2018-06-03T21:34:24.400Z,27.20
2018-06-03T21:36:53.002Z,27.20
2018-06-03T21:39:21.547Z,27.10
2018-06-03T21:41:50.240Z,27.10
2018-06-03T21:44:19.004Z,27.10
2018-06-03T21:46:47.612Z,27.00
2018-06-03T21:49:16.145Z,26.90
2018-06-03T21:51:44.873Z,27.00
2018-06-03T21:54:13.402Z,26.90
2018-06-03T21:56:42.071Z,26.90
2018-06-03T21:59:10.601Z,26.80
2018-06-03T22:01:39.182Z,26.80
2018-06-03T22:04:07.700Z,26.70
2018-06-03T22:06:36.258Z,26.70
2018-06-03T22:09:07.447Z,26.60
2018-06-03T22:11:35.994Z,26.60
2018-06-03T22:14:04.582Z,26.60
2018-06-03T22:16:33.149Z,26.50
2018-06-03T22:19:01.680Z,26.50
2018-06-03T22:21:30.228Z,26.40
2018-06-03T22:23:58.765Z,26.40
2018-06-03T22:26:27.450Z,26.40
2018-06-03T22:28:55.989Z,26.40
2018-06-03T22:31:24.537Z,26.30
2018-06-03T22:33:53.074Z,26.30
2018-06-03T22:36:21.634Z,26.20
2018-06-03T22:41:18.509Z,26.10
2018-06-03T22:43:47.069Z,26.10
2018-06-03T22:48:44.134Z,26.00
2018-06-03T22:51:12.704Z,26.00
2018-06-03T22:53:41.522Z,26.00
2018-06-03T22:56:10.056Z,25.90
2018-06-03T22:58:38.593Z,25.90
2018-06-03T23:01:07.146Z,25.80
2018-06-03T23:03:35.699Z,25.80
2018-06-03T23:06:04.252Z,25.80
2018-06-03T23:08:32.787Z,25.70
2018-06-03T23:11:01.313Z,25.70
2018-06-03T23:15:58.051Z,25.60
2018-06-03T23:18:26.590Z,25.60
2018-06-03T23:20:55.343Z,25.60
2018-06-03T23:23:23.891Z,25.50
2018-06-03T23:25:53.004Z,25.50
2018-06-03T23:28:21.542Z,25.50
2018-06-03T23:30:50.075Z,25.40
2018-06-03T23:33:18.613Z,25.40
2018-06-03T23:35:47.157Z,25.40
2018-06-03T23:38:15.700Z,25.30
2018-06-03T23:40:44.219Z,25.30
2018-06-03T23:43:12.749Z,25.30
2018-06-03T23:45:41.300Z,25.20
2018-06-03T23:48:10.056Z,25.20
2018-06-03T23:50:38.620Z,25.10
2018-06-03T23:53:07.154Z,25.10
2018-06-03T23:55:35.684Z,25.10
2018-06-03T23:58:04.245Z,25.00
